Dati Storici

Data ora Umidita' aria (%) Temperatura aria (°C) Rad globale (W/m²) Gonioanemometro (°) Tacoanemometro (m/s) Pioggia (mm)
21-02-2019 01:30 97.9 % 3.926 12.684 233.012 0.814 0
21-02-2019 01:20 97.9 % 4.156 12.953 244.22 0.655 0
21-02-2019 01:10 97.9 % 4.337 12.71 242.306 0.725 0
21-02-2019 01:00 97.9 % 4.423 12.876 235.353 0.472 0
21-02-2019 00:50 97.9 % 4.375 12.761 247.174 0.342 0
21-02-2019 00:40 97.9 % 4.293 12.825 261.071 0.387 0
21-02-2019 00:30 97.9 % 4.091 12.736 298.421 0.054 0
21-02-2019 00:20 97.9 % 4.479 12.633 276.048 0.143 0
21-02-2019 00:10 97.9 % 4.572 12.595 264.975 0.53 0
21-02-2019 00:00 97.9 % 4.82 12.109 287.853 0.92 0
20-02-2019 23:50 97.9 % 4.697 12.288 278.934 0.41 0
20-02-2019 23:40 97.9 % 5.102 13.093 332.502 0.76 0
20-02-2019 23:30 97.9 % 5.098 12.505 322.052 0.989 0
20-02-2019 23:20 97.9 % 4.882 12.659 301.528 0.384 0
20-02-2019 23:10 97.9 % 4.863 12.301 325.358 0.55 0
20-02-2019 23:00 97.9 % 4.945 12.505 288.764 0.25 0
20-02-2019 22:50 97.9 % 5.109 13.054 282.347 0.231 0
20-02-2019 22:40 97.9 % 5.045 13.093 271.905 0.297 0
20-02-2019 22:30 97.9 % 4.898 12.799 282.046 0.252 0
20-02-2019 22:20 97.9 % 4.941 12.697 280.487 0.207 0

I dati sono presentati in modo automatico a scopo informativo. In seguito a verifica i dati possono subire modifiche o essere invalidati e non riportati negli archivi definitivi.